sensor_id;sensor_type;location;lat;lon;timestamp;pressure;altitude;pressure_sealevel;temperature;humidity
8543;BME280;4309;42.658;23.380;2023-02-08T00:00:06;96294.28;;;-3.95;68.84
8543;BME280;4309;42.658;23.380;2023-02-08T00:00:38;96292.66;;;-3.96;69.46
8543;BME280;4309;42.658;23.380;2023-02-08T00:01:11;96286.91;;;-4.00;68.91
8543;BME280;4309;42.658;23.380;2023-02-08T00:01:44;96293.81;;;-4.02;69.74
8543;BME280;4309;42.658;23.380;2023-02-08T00:02:19;96292.66;;;-3.96;69.64
8543;BME280;4309;42.658;23.380;2023-02-08T00:02:51;96294.19;;;-3.94;69.62
8543;BME280;4309;42.658;23.380;2023-02-08T00:03:23;96298.31;;;-3.91;69.63
8543;BME280;4309;42.658;23.380;2023-02-08T00:03:55;96299.75;;;-4.01;69.85
8543;BME280;4309;42.658;23.380;2023-02-08T00:04:28;96297.75;;;-3.96;68.87
8543;BME280;4309;42.658;23.380;2023-02-08T00:05:00;96293.28;;;-3.93;69.06
8543;BME280;4309;42.658;23.380;2023-02-08T00:05:32;96291.09;;;-3.99;69.24
8543;BME280;4309;42.658;23.380;2023-02-08T00:06:09;96295.66;;;-3.90;69.13
8543;BME280;4309;42.658;23.380;2023-02-08T00:06:41;96301.38;;;-3.86;68.74
8543;BME280;4309;42.658;23.380;2023-02-08T00:07:13;96295.91;;;-3.80;68.99
8543;BME280;4309;42.658;23.380;2023-02-08T00:07:46;96297.19;;;-3.87;69.18
8543;BME280;4309;42.658;23.380;2023-02-08T00:08:18;96300.88;;;-3.91;68.13
8543;BME280;4309;42.658;23.380;2023-02-08T00:08:50;96297.47;;;-3.92;68.73
8543;BME280;4309;42.658;23.380;2023-02-08T00:09:23;96298.56;;;-3.96;69.06
8543;BME280;4309;42.658;23.380;2023-02-08T00:09:57;96301.84;;;-3.94;68.94
8543;BME280;4309;42.658;23.380;2023-02-08T00:10:29;96302.59;;;-4.06;68.56
8543;BME280;4309;42.658;23.380;2023-02-08T00:11:02;96302.88;;;-3.96;68.41
8543;BME280;4309;42.658;23.380;2023-02-08T00:11:34;96298.31;;;-3.91;68.57
8543;BME280;4309;42.658;23.380;2023-02-08T00:12:08;96305.03;;;-3.90;68.10
8543;BME280;4309;42.658;23.380;2023-02-08T00:12:40;96295.75;;;-3.91;69.14
8543;BME280;4309;42.658;23.380;2023-02-08T00:13:12;96302.31;;;-3.87;69.18
8543;BME280;4309;42.658;23.380;2023-02-08T00:13:45;96306.25;;;-3.82;69.02
8543;BME280;4309;42.658;23.380;2023-02-08T00:14:20;96302.75;;;-3.81;68.45
8543;BME280;4309;42.658;23.380;2023-02-08T00:14:51;96311.25;;;-3.80;68.71
8543;BME280;4309;42.658;23.380;2023-02-08T00:15:26;96312.69;;;-3.76;69.52
8543;BME280;4309;42.658;23.380;2023-02-08T00:15:58;96306.47;;;-3.72;69.18
8543;BME280;4309;42.658;23.380;2023-02-08T00:16:30;96309.41;;;-3.78;68.30
8543;BME280;4309;42.658;23.380;2023-02-08T00:17:03;96305.66;;;-3.73;68.17
8543;BME280;4309;42.658;23.380;2023-02-08T00:17:35;96315.59;;;-3.68;69.16
8543;BME280;4309;42.658;23.380;2023-02-08T00:18:09;96316.06;;;-3.76;68.78
8543;BME280;4309;42.658;23.380;2023-02-08T00:18:41;96309.94;;;-3.73;68.94
8543;BME280;4309;42.658;23.380;2023-02-08T00:19:13;96310.50;;;-3.82;69.15
8543;BME280;4309;42.658;23.380;2023-02-08T00:19:48;96315.44;;;-3.79;68.52
8543;BME280;4309;42.658;23.380;2023-02-08T00:20:21;96310.97;;;-3.76;68.38
8543;BME280;4309;42.658;23.380;2023-02-08T00:20:54;96312.59;;;-3.75;68.16
8543;BME280;4309;42.658;23.380;2023-02-08T00:21:28;96309.41;;;-3.92;68.30
8543;BME280;4309;42.658;23.380;2023-02-08T00:22:01;96308.84;;;-3.83;68.34
8543;BME280;4309;42.658;23.380;2023-02-08T00:22:33;96307.97;;;-3.82;68.03
8543;BME280;4309;42.658;23.380;2023-02-08T00:23:05;96307.13;;;-3.83;67.32
8543;BME280;4309;42.658;23.380;2023-02-08T00:23:39;96311.44;;;-3.97;67.99
8543;BME280;4309;42.658;23.380;2023-02-08T00:24:11;96318.75;;;-3.91;68.94
8543;BME280;4309;42.658;23.380;2023-02-08T00:24:43;96312.44;;;-4.00;68.95
8543;BME280;4309;42.658;23.380;2023-02-08T00:25:17;96317.09;;;-3.92;68.67
8543;BME280;4309;42.658;23.380;2023-02-08T00:25:50;96322.75;;;-3.87;68.92
8543;BME280;4309;42.658;23.380;2023-02-08T00:26:22;96316.28;;;-3.93;68.77
8543;BME280;4309;42.658;23.380;2023-02-08T00:26:55;96312.25;;;-3.97;68.01
8543;BME280;4309;42.658;23.380;2023-02-08T00:27:27;96314.44;;;-3.91;68.79
8543;BME280;4309;42.658;23.380;2023-02-08T00:27:59;96317.44;;;-3.84;68.10
8543;BME280;4309;42.658;23.380;2023-02-08T00:28:32;96312.97;;;-3.81;68.62
8543;BME280;4309;42.658;23.380;2023-02-08T00:29:04;96314.78;;;-3.83;68.28
8543;BME280;4309;42.658;23.380;2023-02-08T00:29:36;96313.06;;;-3.82;69.04
8543;BME280;4309;42.658;23.380;2023-02-08T00:30:10;96321.38;;;-3.79;68.09
8543;BME280;4309;42.658;23.380;2023-02-08T00:30:42;96315.25;;;-3.76;68.61
8543;BME280;4309;42.658;23.380;2023-02-08T00:31:14;96321.97;;;-3.75;68.54
8543;BME280;4309;42.658;23.380;2023-02-08T00:31:48;96320.72;;;-3.68;68.42
8543;BME280;4309;42.658;23.380;2023-02-08T00:32:20;96316.78;;;-3.74;68.11
8543;BME280;4309;42.658;23.380;2023-02-08T00:32:50;96321.00;;;-3.73;67.43
8543;BME280;4309;42.658;23.380;2023-02-08T00:33:29;96327.47;;;-3.81;68.12
8543;BME280;4309;42.658;23.380;2023-02-08T00:34:01;96328.59;;;-3.85;69.02
8543;BME280;4309;42.658;23.380;2023-02-08T00:34:32;96324.47;;;-3.88;68.76
8543;BME280;4309;42.658;23.380;2023-02-08T00:35:06;96314.06;;;-3.85;69.32
8543;BME280;4309;42.658;23.380;2023-02-08T00:35:37;96321.47;;;-3.80;68.67
8543;BME280;4309;42.658;23.380;2023-02-08T00:36:10;96316.34;;;-3.80;68.57
8543;BME280;4309;42.658;23.380;2023-02-08T00:36:44;96326.47;;;-3.79;68.42
8543;BME280;4309;42.658;23.380;2023-02-08T00:37:16;96324.53;;;-3.75;68.78
8543;BME280;4309;42.658;23.380;2023-02-08T00:37:48;96332.66;;;-3.69;68.63
8543;BME280;4309;42.658;23.380;2023-02-08T00:38:21;96326.81;;;-3.71;68.87
8543;BME280;4309;42.658;23.380;2023-02-08T00:38:53;96329.47;;;-3.72;68.66
8543;BME280;4309;42.658;23.380;2023-02-08T00:39:25;96329.31;;;-3.69;68.58
8543;BME280;4309;42.658;23.380;2023-02-08T00:39:58;96340.31;;;-3.69;68.13
8543;BME280;4309;42.658;23.380;2023-02-08T00:40:38;96320.91;;;-3.71;68.78
8543;BME280;4309;42.658;23.380;2023-02-08T00:41:14;96336.69;;;-3.65;68.32
8543;BME280;4309;42.658;23.380;2023-02-08T00:41:46;96331.75;;;-3.68;68.90
8543;BME280;4309;42.658;23.380;2023-02-08T00:42:19;96334.22;;;-3.66;68.85
8543;BME280;4309;42.658;23.380;2023-02-08T00:42:52;96331.56;;;-3.65;68.26
8543;BME280;4309;42.658;23.380;2023-02-08T00:43:24;96338.41;;;-3.65;68.02
8543;BME280;4309;42.658;23.380;2023-02-08T00:43:54;96331.28;;;-3.60;68.09
8543;BME280;4309;42.658;23.380;2023-02-08T00:44:28;96331.84;;;-3.55;68.65
8543;BME280;4309;42.658;23.380;2023-02-08T00:45:00;96340.94;;;-3.51;68.32
8543;BME280;4309;42.658;23.380;2023-02-08T00:45:32;96340.75;;;-3.48;68.48
8543;BME280;4309;42.658;23.380;2023-02-08T00:46:07;96339.16;;;-3.63;67.72
8543;BME280;4309;42.658;23.380;2023-02-08T00:46:42;96344.31;;;-3.51;67.71
8543;BME280;4309;42.658;23.380;2023-02-08T00:47:14;96334.66;;;-3.60;67.94
8543;BME280;4309;42.658;23.380;2023-02-08T00:47:46;96342.59;;;-3.64;67.86
8543;BME280;4309;42.658;23.380;2023-02-08T00:48:18;96344.72;;;-3.57;67.38
8543;BME280;4309;42.658;23.380;2023-02-08T00:48:50;96334.22;;;-3.66;67.60
8543;BME280;4309;42.658;23.380;2023-02-08T00:49:23;96342.31;;;-3.60;67.10
8543;BME280;4309;42.658;23.380;2023-02-08T00:49:55;96336.78;;;-3.66;67.41
8543;BME280;4309;42.658;23.380;2023-02-08T00:50:27;96334.13;;;-3.65;67.85
8543;BME280;4309;42.658;23.380;2023-02-08T00:51:01;96334.25;;;-3.80;67.63
8543;BME280;4309;42.658;23.380;2023-02-08T00:51:34;96336.81;;;-3.80;67.91
8543;BME280;4309;42.658;23.380;2023-02-08T00:52:06;96338.34;;;-3.78;68.59
8543;BME280;4309;42.658;23.380;2023-02-08T00:52:37;96335.03;;;-3.66;68.11
8543;BME280;4309;42.658;23.380;2023-02-08T00:53:12;96334.78;;;-3.89;67.74
8543;BME280;4309;42.658;23.380;2023-02-08T00:53:45;96337.16;;;-3.86;68.35
8543;BME280;4309;42.658;23.380;2023-02-08T00:54:19;96340.16;;;-3.94;68.83
8543;BME280;4309;42.658;23.380;2023-02-08T00:54:52;96343.47;;;-3.92;69.28
8543;BME280;4309;42.658;23.380;2023-02-08T00:55:23;96340.81;;;-3.90;69.36
8543;BME280;4309;42.658;23.380;2023-02-08T00:55:58;96336.53;;;-3.90;69.39
8543;BME280;4309;42.658;23.380;2023-02-08T00:56:30;96332.88;;;-3.86;69.65
8543;BME280;4309;42.658;23.380;2023-02-08T00:57:02;96346.38;;;-3.84;69.12
8543;BME280;4309;42.658;23.380;2023-02-08T00:57:35;96346.56;;;-4.15;69.37
8543;BME280;4309;42.658;23.380;2023-02-08T00:58:07;96338.16;;;-4.17;68.96
8543;BME280;4309;42.658;23.380;2023-02-08T00:58:40;96343.91;;;-3.99;69.42
8543;BME280;4309;42.658;23.380;2023-02-08T00:59:13;96343.28;;;-3.89;69.36
8543;BME280;4309;42.658;23.380;2023-02-08T00:59:45;96332.31;;;-4.05;69.12
8543;BME280;4309;42.658;23.380;2023-02-08T01:00:18;96346.84;;;-4.05;69.55
8543;BME280;4309;42.658;23.380;2023-02-08T01:00:51;96335.81;;;-4.06;69.42
8543;BME280;4309;42.658;23.380;2023-02-08T01:01:23;96342.91;;;-4.11;69.74
8543;BME280;4309;42.658;23.380;2023-02-08T01:01:56;96333.06;;;-4.17;69.77
8543;BME280;4309;42.658;23.380;2023-02-08T01:02:28;96346.84;;;-4.05;69.35
8543;BME280;4309;42.658;23.380;2023-02-08T01:03:01;96347.75;;;-4.06;70.15
8543;BME280;4309;42.658;23.380;2023-02-08T01:03:37;96346.75;;;-4.04;70.25
8543;BME280;4309;42.658;23.380;2023-02-08T01:04:10;96350.19;;;-4.05;69.95
8543;BME280;4309;42.658;23.380;2023-02-08T01:04:42;96352.09;;;-3.94;70.21
8543;BME280;4309;42.658;23.380;2023-02-08T01:05:13;96337.97;;;-4.00;69.57
8543;BME280;4309;42.658;23.380;2023-02-08T01:05:46;96350.84;;;-3.87;69.33
8543;BME280;4309;42.658;23.380;2023-02-08T01:06:17;96345.72;;;-3.87;69.63
8543;BME280;4309;42.658;23.380;2023-02-08T01:06:48;96354.13;;;-3.85;69.64
8543;BME280;4309;42.658;23.380;2023-02-08T01:07:21;96344.72;;;-3.85;68.81
8543;BME280;4309;42.658;23.380;2023-02-08T01:07:53;96343.53;;;-3.79;69.32
8543;BME280;4309;42.658;23.380;2023-02-08T01:08:25;96343.44;;;-3.78;68.74
8543;BME280;4309;42.658;23.380;2023-02-08T01:08:57;96355.38;;;-3.78;69.17
8543;BME280;4309;42.658;23.380;2023-02-08T01:09:31;96351.38;;;-3.82;69.31
8543;BME280;4309;42.658;23.380;2023-02-08T01:10:03;96351.28;;;-3.81;69.28
8543;BME280;4309;42.658;23.380;2023-02-08T01:10:36;96346.63;;;-3.74;69.16
8543;BME280;4309;42.658;23.380;2023-02-08T01:11:11;96337.59;;;-3.80;68.87
8543;BME280;4309;42.658;23.380;2023-02-08T01:11:43;96347.81;;;-3.66;69.18
8543;BME280;4309;42.658;23.380;2023-02-08T01:12:16;96348.00;;;-3.69;69.16
8543;BME280;4309;42.658;23.380;2023-02-08T01:12:49;96340.31;;;-3.69;69.14
8543;BME280;4309;42.658;23.380;2023-02-08T01:13:21;96353.09;;;-3.69;69.21
8543;BME280;4309;42.658;23.380;2023-02-08T01:13:54;96348.91;;;-3.70;69.42
8543;BME280;4309;42.658;23.380;2023-02-08T01:14:29;96349.09;;;-3.59;69.32
8543;BME280;4309;42.658;23.380;2023-02-08T01:15:01;96340.97;;;-3.65;68.78
8543;BME280;4309;42.658;23.380;2023-02-08T01:15:33;96348.81;;;-3.68;69.03
8543;BME280;4309;42.658;23.380;2023-02-08T01:16:10;96347.81;;;-3.66;68.86
8543;BME280;4309;42.658;23.380;2023-02-08T01:16:42;96349.75;;;-3.69;68.84
8543;BME280;4309;42.658;23.380;2023-02-08T01:17:15;96349.47;;;-3.79;68.59
8543;BME280;4309;42.658;23.380;2023-02-08T01:17:52;96344.78;;;-3.72;68.59
8543;BME280;4309;42.658;23.380;2023-02-08T01:18:25;96343.72;;;-3.68;68.71
8543;BME280;4309;42.658;23.380;2023-02-08T01:18:58;96345.63;;;-3.72;68.07
8543;BME280;4309;42.658;23.380;2023-02-08T01:19:31;96350.53;;;-3.69;68.18
8543;BME280;4309;42.658;23.380;2023-02-08T01:20:05;96340.06;;;-3.78;68.78
8543;BME280;4309;42.658;23.380;2023-02-08T01:20:37;96344.44;;;-3.66;68.98
8543;BME280;4309;42.658;23.380;2023-02-08T01:21:11;96348.53;;;-3.64;68.30
8543;BME280;4309;42.658;23.380;2023-02-08T01:21:44;96347.72;;;-3.78;68.76
8543;BME280;4309;42.658;23.380;2023-02-08T01:22:16;96349.31;;;-3.90;68.90
8543;BME280;4309;42.658;23.380;2023-02-08T01:22:49;96341.72;;;-3.91;69.43
8543;BME280;4309;42.658;23.380;2023-02-08T01:23:20;96345.75;;;-4.01;69.28
8543;BME280;4309;42.658;23.380;2023-02-08T01:23:53;96338.72;;;-4.12;69.12
8543;BME280;4309;42.658;23.380;2023-02-08T01:24:26;96345.84;;;-4.03;70.11
8543;BME280;4309;42.658;23.380;2023-02-08T01:24:58;96331.44;;;-4.04;70.15
8543;BME280;4309;42.658;23.380;2023-02-08T01:25:30;96335.81;;;-4.06;69.58
8543;BME280;4309;42.658;23.380;2023-02-08T01:26:05;96332.69;;;-4.11;69.56
8543;BME280;4309;42.658;23.380;2023-02-08T01:26:38;96336.97;;;-3.97;70.17
8543;BME280;4309;42.658;23.380;2023-02-08T01:27:10;96339.00;;;-3.88;70.32
8543;BME280;4309;42.658;23.380;2023-02-08T01:27:43;96332.84;;;-3.72;69.35
8543;BME280;4309;42.658;23.380;2023-02-08T01:28:15;96339.25;;;-3.79;69.79
8543;BME280;4309;42.658;23.380;2023-02-08T01:28:48;96346.19;;;-3.81;69.69
8543;BME280;4309;42.658;23.380;2023-02-08T01:29:20;96337.31;;;-3.89;69.64
8543;BME280;4309;42.658;23.380;2023-02-08T01:29:54;96333.16;;;-3.90;69.30
8543;BME280;4309;42.658;23.380;2023-02-08T01:30:26;96333.88;;;-3.88;69.99
8543;BME280;4309;42.658;23.380;2023-02-08T01:30:59;96332.59;;;-3.95;69.69
8543;BME280;4309;42.658;23.380;2023-02-08T01:31:32;96335.53;;;-4.01;69.83
8543;BME280;4309;42.658;23.380;2023-02-08T01:32:04;96336.78;;;-3.94;69.69
8543;BME280;4309;42.658;23.380;2023-02-08T01:32:36;96316.34;;;-4.08;69.95
8543;BME280;4309;42.658;23.380;2023-02-08T01:33:08;96331.13;;;-3.85;69.78
8543;BME280;4309;42.658;23.380;2023-02-08T01:33:41;96330.59;;;-3.90;69.50
8543;BME280;4309;42.658;23.380;2023-02-08T01:34:13;96330.94;;;-3.82;69.88
8543;BME280;4309;42.658;23.380;2023-02-08T01:34:45;96332.69;;;-3.97;69.34
8543;BME280;4309;42.658;23.380;2023-02-08T01:35:18;96331.59;;;-3.93;69.25
8543;BME280;4309;42.658;23.380;2023-02-08T01:35:50;96337.16;;;-3.86;69.25
8543;BME280;4309;42.658;23.380;2023-02-08T01:36:23;96331.34;;;-4.02;69.51
8543;BME280;4309;42.658;23.380;2023-02-08T01:36:55;96343.19;;;-4.01;70.10
8543;BME280;4309;42.658;23.380;2023-02-08T01:37:27;96332.78;;;-3.98;70.12
8543;BME280;4309;42.658;23.380;2023-02-08T01:37:59;96341.72;;;-3.91;69.99
8543;BME280;4309;42.658;23.380;2023-02-08T01:38:32;96340.16;;;-3.94;69.64
8543;BME280;4309;42.658;23.380;2023-02-08T01:39:05;96339.69;;;-4.28;70.24
8543;BME280;4309;42.658;23.380;2023-02-08T01:39:37;96341.47;;;-4.15;70.72
8543;BME280;4309;42.658;23.380;2023-02-08T01:40:11;96329.59;;;-4.16;70.54
8543;BME280;4309;42.658;23.380;2023-02-08T01:40:43;96343.47;;;-4.06;70.12
8543;BME280;4309;42.658;23.380;2023-02-08T01:41:17;96334.50;;;-4.13;70.55
8543;BME280;4309;42.658;23.380;2023-02-08T01:41:52;96343.00;;;-3.98;70.58
8543;BME280;4309;42.658;23.380;2023-02-08T01:42:25;96337.97;;;-4.00;70.59
8543;BME280;4309;42.658;23.380;2023-02-08T01:42:58;96341.28;;;-3.98;71.22
8543;BME280;4309;42.658;23.380;2023-02-08T01:43:31;96342.91;;;-3.97;70.68
8543;BME280;4309;42.658;23.380;2023-02-08T01:44:08;96341.81;;;-3.93;70.99
8543;BME280;4309;42.658;23.380;2023-02-08T01:45:25;96335.25;;;-4.11;70.51
8543;BME280;4309;42.658;23.380;2023-02-08T01:45:59;96336.44;;;-4.02;70.95
8543;BME280;4309;42.658;23.380;2023-02-08T01:46:33;96344.00;;;-4.01;70.66
8543;BME280;4309;42.658;23.380;2023-02-08T01:47:05;96339.09;;;-4.04;70.63
8543;BME280;4309;42.658;23.380;2023-02-08T01:47:37;96334.69;;;-4.02;71.23
8543;BME280;4309;42.658;23.380;2023-02-08T01:48:17;96347.63;;;-3.91;70.80
8543;BME280;4309;42.658;23.380;2023-02-08T01:48:49;96339.28;;;-3.93;70.82
8543;BME280;4309;42.658;23.380;2023-02-08T01:49:25;96341.19;;;-3.96;70.79
8543;BME280;4309;42.658;23.380;2023-02-08T01:50:02;96334.69;;;-3.88;71.16
8543;BME280;4309;42.658;23.380;2023-02-08T01:50:41;96334.59;;;-3.86;71.07
8543;BME280;4309;42.658;23.380;2023-02-08T01:51:17;96336.34;;;-3.87;70.06
8543;BME280;4309;42.658;23.380;2023-02-08T01:51:55;96339.19;;;-3.91;70.65
8543;BME280;4309;42.658;23.380;2023-02-08T01:52:30;96342.06;;;-3.83;70.87
8543;BME280;4309;42.658;23.380;2023-02-08T01:53:03;96346.56;;;-3.87;71.07
8543;BME280;4309;42.658;23.380;2023-02-08T01:53:35;96333.16;;;-3.90;71.21
8543;BME280;4309;42.658;23.380;2023-02-08T01:54:09;96347.00;;;-3.94;70.97
8543;BME280;4309;42.658;23.380;2023-02-08T01:54:47;96341.97;;;-3.96;71.33
8543;BME280;4309;42.658;23.380;2023-02-08T01:55:23;96344.63;;;-3.83;70.87
8543;BME280;4309;42.658;23.380;2023-02-08T01:56:00;96342.72;;;-3.80;71.08
8543;BME280;4309;42.658;23.380;2023-02-08T01:56:39;96344.38;;;-3.79;70.60
8543;BME280;4309;42.658;23.380;2023-02-08T01:57:13;96345.16;;;-3.78;70.96
8543;BME280;4309;42.658;23.380;2023-02-08T01:57:49;96347.25;;;-3.71;70.69
8543;BME280;4309;42.658;23.380;2023-02-08T01:58:29;96340.34;;;-3.83;70.62
8543;BME280;4309;42.658;23.380;2023-02-08T01:59:06;96350.91;;;-3.75;70.48
8543;BME280;4309;42.658;23.380;2023-02-08T01:59:42;96350.16;;;-3.63;70.26
8543;BME280;4309;42.658;23.380;2023-02-08T02:00:17;96346.72;;;-3.62;70.52
8543;BME280;4309;42.658;23.380;2023-02-08T02:00:53;96345.25;;;-3.66;70.60
8543;BME280;4309;42.658;23.380;2023-02-08T02:01:26;96348.44;;;-3.62;70.56
8543;BME280;4309;42.658;23.380;2023-02-08T02:02:00;96352.38;;;-3.57;69.89
8543;BME280;4309;42.658;23.380;2023-02-08T02:02:35;96358.81;;;-3.51;70.10
8543;BME280;4309;42.658;23.380;2023-02-08T02:03:07;96354.53;;;-3.51;69.77
8543;BME280;4309;42.658;23.380;2023-02-08T02:03:41;96352.59;;;-3.47;69.28
8543;BME280;4309;42.658;23.380;2023-02-08T02:04:15;96347.88;;;-3.53;69.76
8543;BME280;4309;42.658;23.380;2023-02-08T02:04:48;96353.44;;;-3.47;69.47
8543;BME280;4309;42.658;23.380;2023-02-08T02:05:25;96354.53;;;-3.51;68.67
8543;BME280;4309;42.658;23.380;2023-02-08T02:06:03;96355.34;;;-3.50;68.95
8543;BME280;4309;42.658;23.380;2023-02-08T02:06:39;96349.63;;;-3.54;68.80
8543;BME280;4309;42.658;23.380;2023-02-08T02:07:13;96362.31;;;-3.52;69.68
8543;BME280;4309;42.658;23.380;2023-02-08T02:07:47;96348.59;;;-3.51;69.39
8543;BME280;4309;42.658;23.380;2023-02-08T02:08:21;96351.81;;;-3.62;69.64
8543;BME280;4309;42.658;23.380;2023-02-08T02:09:00;96357.31;;;-3.68;69.14
8543;BME280;4309;42.658;23.380;2023-02-08T02:09:39;96355.38;;;-3.64;69.02
8543;BME280;4309;42.658;23.380;2023-02-08T02:10:15;96356.97;;;-3.76;69.61
8543;BME280;4309;42.658;23.380;2023-02-08T02:10:51;96354.91;;;-3.71;70.52
8543;BME280;4309;42.658;23.380;2023-02-08T02:11:27;96359.22;;;-3.71;70.01
8543;BME280;4309;42.658;23.380;2023-02-08T02:12:00;96360.66;;;-3.67;70.09
8543;BME280;4309;42.658;23.380;2023-02-08T02:12:35;96355.47;;;-3.80;70.49
8543;BME280;4309;42.658;23.380;2023-02-08T02:13:12;96353.13;;;-3.83;70.45
8543;BME280;4309;42.658;23.380;2023-02-08T02:13:46;96368.34;;;-3.81;70.82
8543;BME280;4309;42.658;23.380;2023-02-08T02:14:18;96370.72;;;-3.78;70.66
8543;BME280;4309;42.658;23.380;2023-02-08T02:14:52;96370.34;;;-3.72;70.81
8543;BME280;4309;42.658;23.380;2023-02-08T02:15:23;96361.88;;;-3.73;71.04
8543;BME280;4309;42.658;23.380;2023-02-08T02:15:55;96353.56;;;-3.62;70.62
8543;BME280;4309;42.658;23.380;2023-02-08T02:16:28;96355.03;;;-3.58;70.96
8543;BME280;4309;42.658;23.380;2023-02-08T02:16:59;96350.06;;;-3.61;70.10
8543;BME280;4309;42.658;23.380;2023-02-08T02:17:32;96357.56;;;-3.58;70.13
8543;BME280;4309;42.658;23.380;2023-02-08T02:18:08;96368.88;;;-3.62;70.53
8543;BME280;4309;42.658;23.380;2023-02-08T02:18:39;96367.34;;;-3.65;70.20
8543;BME280;4309;42.658;23.380;2023-02-08T02:19:25;96369.25;;;-3.68;70.36
8543;BME280;4309;42.658;23.380;2023-02-08T02:20:09;96370.72;;;-3.78;70.87
8543;BME280;4309;42.658;23.380;2023-02-08T02:20:58;96363.25;;;-3.81;70.56
8543;BME280;4309;42.658;23.380;2023-02-08T02:21:55;96371.19;;;-3.72;70.92
8543;BME280;4309;42.658;23.380;2023-02-08T02:22:54;96370.09;;;-3.68;70.84
8543;BME280;4309;42.658;23.380;2023-02-08T02:25:06;96369.91;;;-3.65;70.29
8543;BME280;4309;42.658;23.380;2023-02-08T02:26:10;96373.06;;;-3.61;70.86
8543;BME280;4309;42.658;23.380;2023-02-08T02:28:27;96379.22;;;-3.78;70.90
8543;BME280;4309;42.658;23.380;2023-02-08T02:29:44;96379.38;;;-3.67;70.71
8543;BME280;4309;42.658;23.380;2023-02-08T02:31:43;96383.22;;;-3.74;70.28
8543;BME280;4309;42.658;23.380;2023-02-08T02:32:30;96380.38;;;-3.83;70.74
8543;BME280;4309;42.658;23.380;2023-02-08T02:33:27;96374.56;;;-3.85;70.82
8543;BME280;4309;42.658;23.380;2023-02-08T02:34:08;96387.53;;;-3.74;71.22
8543;BME280;4309;42.658;23.380;2023-02-08T02:34:45;96385.78;;;-3.74;71.16
8543;BME280;4309;42.658;23.380;2023-02-08T02:35:27;96378.75;;;-3.70;70.70
8543;BME280;4309;42.658;23.380;2023-02-08T02:36:08;96380.13;;;-3.65;71.16
8543;BME280;4309;42.658;23.380;2023-02-08T02:36:47;96381.50;;;-3.73;71.63
8543;BME280;4309;42.658;23.380;2023-02-08T02:37:31;96378.75;;;-3.70;71.01
8543;BME280;4309;42.658;23.380;2023-02-08T02:38:14;96383.84;;;-3.70;71.20
8543;BME280;4309;42.658;23.380;2023-02-08T02:38:59;96382.13;;;-3.70;71.47
8543;BME280;4309;42.658;23.380;2023-02-08T02:39:41;96385.34;;;-3.80;71.03
8543;BME280;4309;42.658;23.380;2023-02-08T02:40:22;96397.28;;;-3.81;71.05
8543;BME280;4309;42.658;23.380;2023-02-08T02:41:02;96393.00;;;-3.80;71.38
8543;BME280;4309;42.658;23.380;2023-02-08T02:41:40;96396.53;;;-3.83;71.79
8543;BME280;4309;42.658;23.380;2023-02-08T02:42:44;96380.75;;;-3.75;71.06
8543;BME280;4309;42.658;23.380;2023-02-08T02:43:43;96392.53;;;-3.73;71.35
8543;BME280;4309;42.658;23.380;2023-02-08T02:44:22;96388.31;;;-3.60;70.87
8543;BME280;4309;42.658;23.380;2023-02-08T02:45:04;96387.53;;;-3.74;70.23
8543;BME280;4309;42.658;23.380;2023-02-08T02:45:44;96388.50;;;-3.77;70.61
8543;BME280;4309;42.658;23.380;2023-02-08T02:46:23;96380.56;;;-3.72;71.08
8543;BME280;4309;42.658;23.380;2023-02-08T02:47:04;96375.66;;;-3.89;71.13
8543;BME280;4309;42.658;23.380;2023-02-08T02:47:46;96391.16;;;-3.78;71.55
8543;BME280;4309;42.658;23.380;2023-02-08T02:48:28;96390.88;;;-3.88;72.15
8543;BME280;4309;42.658;23.380;2023-02-08T02:49:04;96393.63;;;-3.91;72.36
8543;BME280;4309;42.658;23.380;2023-02-08T02:49:47;96392.81;;;-3.91;73.10
8543;BME280;4309;42.658;23.380;2023-02-08T02:50:30;96378.09;;;-3.88;72.65
8543;BME280;4309;42.658;23.380;2023-02-08T02:51:08;96385.50;;;-3.97;73.16
8543;BME280;4309;42.658;23.380;2023-02-08T02:51:48;96389.25;;;-3.89;73.20
8543;BME280;4309;42.658;23.380;2023-02-08T02:52:30;96390.78;;;-4.00;73.26
8543;BME280;4309;42.658;23.380;2023-02-08T02:53:10;96383.97;;;-4.00;73.27
8543;BME280;4309;42.658;23.380;2023-02-08T02:53:49;96395.00;;;-3.99;73.90
8543;BME280;4309;42.658;23.380;2023-02-08T02:54:28;96389.06;;;-4.00;74.06
8543;BME280;4309;42.658;23.380;2023-02-08T02:55:07;96383.31;;;-4.03;73.69
8543;BME280;4309;42.658;23.380;2023-02-08T02:55:43;96391.16;;;-4.06;73.78
8543;BME280;4309;42.658;23.380;2023-02-08T02:56:21;96386.50;;;-4.14;73.42
8543;BME280;4309;42.658;23.380;2023-02-08T02:56:57;96388.13;;;-4.13;74.21
8543;BME280;4309;42.658;23.380;2023-02-08T02:57:32;96389.69;;;-4.10;74.47
8543;BME280;4309;42.658;23.380;2023-02-08T02:58:08;96383.38;;;-4.19;74.50
8543;BME280;4309;42.658;23.380;2023-02-08T02:58:43;96384.97;;;-4.16;74.41
8543;BME280;4309;42.658;23.380;2023-02-08T02:59:16;96387.84;;;-4.22;75.25
8543;BME280;4309;42.658;23.380;2023-02-08T02:59:49;96391.28;;;-4.37;75.27
8543;BME280;4309;42.658;23.380;2023-02-08T03:00:23;96393.09;;;-4.39;75.01
8543;BME280;4309;42.658;23.380;2023-02-08T03:00:56;96391.69;;;-4.29;75.92
8543;BME280;4309;42.658;23.380;2023-02-08T03:01:30;96395.13;;;-4.30;75.89
8543;BME280;4309;42.658;23.380;2023-02-08T03:02:04;96384.09;;;-4.31;75.92
8543;BME280;4309;42.658;23.380;2023-02-08T03:02:36;96390.66;;;-4.27;76.23
8543;BME280;4309;42.658;23.380;2023-02-08T03:03:19;96393.97;;;-4.25;76.26
8543;BME280;4309;42.658;23.380;2023-02-08T03:03:53;96396.50;;;-4.25;75.88
8543;BME280;4309;42.658;23.380;2023-02-08T03:04:51;96388.28;;;-4.30;75.92
8543;BME280;4309;42.658;23.380;2023-02-08T03:05:24;96392.66;;;-4.32;76.58
8543;BME280;4309;42.658;23.380;2023-02-08T03:05:59;96393.56;;;-4.33;76.03
8543;BME280;4309;42.658;23.380;2023-02-08T03:06:40;96391.13;;;-4.20;77.01
8543;BME280;4309;42.658;23.380;2023-02-08T03:07:32;96397.28;;;-4.09;76.11
8543;BME280;4309;42.658;23.380;2023-02-08T03:08:20;96393.16;;;-4.11;76.30
8543;BME280;4309;42.658;23.380;2023-02-08T03:09:12;96397.06;;;-4.20;75.76
8543;BME280;4309;42.658;23.380;2023-02-08T03:09:54;96391.03;;;-4.19;76.38
8543;BME280;4309;42.658;23.380;2023-02-08T03:10:49;96395.69;;;-4.25;75.84
8543;BME280;4309;42.658;23.380;2023-02-08T03:11:25;96392.75;;;-4.33;76.07
8543;BME280;4309;42.658;23.380;2023-02-08T03:12:08;96391.84;;;-4.32;76.13
8543;BME280;4309;42.658;23.380;2023-02-08T03:12:53;96386.53;;;-4.43;76.31
8543;BME280;4309;42.658;23.380;2023-02-08T03:13:31;96386.72;;;-4.46;76.10
8543;BME280;4309;42.658;23.380;2023-02-08T03:14:23;96397.41;;;-4.40;76.34
8543;BME280;4309;42.658;23.380;2023-02-08T03:15:05;96387.81;;;-4.36;76.52